sensor_id;sensor_type;location;lat;lon;timestamp;pressure;altitude;pressure_sealevel;temperature;humidity
63493;BME280;49638;47.526;10.028;2023-02-12T00:00:50;93286.06;;;-0.16;62.11
63493;BME280;49638;47.526;10.028;2023-02-12T00:03:51;93283.19;;;-0.22;62.98
63493;BME280;49638;47.526;10.028;2023-02-12T00:06:51;93281.31;;;-0.30;63.11
63493;BME280;49638;47.526;10.028;2023-02-12T00:09:51;93285.28;;;-0.36;63.26
63493;BME280;49638;47.526;10.028;2023-02-12T00:12:54;93290.22;;;-0.52;62.83
63493;BME280;49638;47.526;10.028;2023-02-12T00:15:55;93290.47;;;-0.55;62.71
63493;BME280;49638;47.526;10.028;2023-02-12T00:18:56;93284.63;;;-0.47;62.65
63493;BME280;49638;47.526;10.028;2023-02-12T00:21:57;93289.50;;;-0.44;62.72
63493;BME280;49638;47.526;10.028;2023-02-12T00:24:57;93282.28;;;-0.51;62.07
63493;BME280;49638;47.526;10.028;2023-02-12T00:27:58;93299.91;;;-0.44;62.39
63493;BME280;49638;47.526;10.028;2023-02-12T00:31:03;93292.25;;;-0.56;61.69
63493;BME280;49638;47.526;10.028;2023-02-12T00:34:04;93282.69;;;-0.55;62.00
63493;BME280;49638;47.526;10.028;2023-02-12T00:37:05;93292.09;;;-0.44;61.98
63493;BME280;49638;47.526;10.028;2023-02-12T00:40:06;93287.06;;;-0.46;62.11
63493;BME280;49638;47.526;10.028;2023-02-12T00:43:06;93287.22;;;-0.47;61.48
63493;BME280;49638;47.526;10.028;2023-02-12T00:46:06;93297.59;;;-0.47;61.92
63493;BME280;49638;47.526;10.028;2023-02-12T00:49:08;93282.41;;;-0.42;62.05
63493;BME280;49638;47.526;10.028;2023-02-12T00:52:08;93278.31;;;-0.55;62.79
63493;BME280;49638;47.526;10.028;2023-02-12T00:55:08;93282.56;;;-0.63;63.44
63493;BME280;49638;47.526;10.028;2023-02-12T00:58:08;93262.19;;;-0.58;63.48
63493;BME280;49638;47.526;10.028;2023-02-12T01:01:09;93251.13;;;-0.51;63.55
63493;BME280;49638;47.526;10.028;2023-02-12T01:04:09;93268.88;;;-0.46;63.63
63493;BME280;49638;47.526;10.028;2023-02-12T01:07:10;93274.06;;;-0.36;63.33
63493;BME280;49638;47.526;10.028;2023-02-12T01:10:10;93263.25;;;-0.32;63.07
63493;BME280;49638;47.526;10.028;2023-02-12T01:13:14;93264.19;;;-0.23;62.74
63493;BME280;49638;47.526;10.028;2023-02-12T01:16:20;93270.22;;;-0.22;63.17
63493;BME280;49638;47.526;10.028;2023-02-12T01:19:20;93279.38;;;-0.18;62.67
63493;BME280;49638;47.526;10.028;2023-02-12T01:22:20;93286.44;;;-0.11;62.30
63493;BME280;49638;47.526;10.028;2023-02-12T01:25:21;93292.63;;;-0.12;62.32
63493;BME280;49638;47.526;10.028;2023-02-12T01:28:21;93293.44;;;-0.21;62.11
63493;BME280;49638;47.526;10.028;2023-02-12T01:31:24;93304.97;;;-0.33;63.27
63493;BME280;49638;47.526;10.028;2023-02-12T01:34:25;93304.97;;;-0.43;63.00
63493;BME280;49638;47.526;10.028;2023-02-12T01:37:25;93305.25;;;-0.46;63.28
63493;BME280;49638;47.526;10.028;2023-02-12T01:40:25;93276.84;;;-0.57;62.93
63493;BME280;49638;47.526;10.028;2023-02-12T01:43:25;93284.19;;;-0.62;63.51
63493;BME280;49638;47.526;10.028;2023-02-12T01:46:26;93283.66;;;-0.56;63.33
63493;BME280;49638;47.526;10.028;2023-02-12T01:52:32;93264.66;;;-0.57;62.74
63493;BME280;49638;47.526;10.028;2023-02-12T01:55:33;93269.44;;;-0.42;62.61
63493;BME280;49638;47.526;10.028;2023-02-12T01:58:38;93269.97;;;-0.39;62.01
63493;BME280;49638;47.526;10.028;2023-02-12T02:01:40;93263.81;;;-0.38;62.53
63493;BME280;49638;47.526;10.028;2023-02-12T02:04:46;93278.84;;;-0.32;62.98
63493;BME280;49638;47.526;10.028;2023-02-12T02:07:47;93276.78;;;-0.28;63.15
63493;BME280;49638;47.526;10.028;2023-02-12T02:10:47;93268.72;;;-0.35;64.03
63493;BME280;49638;47.526;10.028;2023-02-12T02:13:48;93260.94;;;-0.35;64.26
63493;BME280;49638;47.526;10.028;2023-02-12T02:24:03;93261.19;;;-0.28;60.56
63493;BME280;49638;47.526;10.028;2023-02-12T02:27:17;93248.75;;;-0.34;63.04
63493;BME280;49638;47.526;10.028;2023-02-12T02:33:52;93261.25;;;-0.57;61.36
63493;BME280;49638;47.526;10.028;2023-02-12T02:37:13;93257.94;;;-0.50;62.74
63493;BME280;49638;47.526;10.028;2023-02-12T02:40:18;93250.56;;;-0.44;62.16
63493;BME280;49638;47.526;10.028;2023-02-12T02:43:27;93242.34;;;-0.40;62.25
63493;BME280;49638;47.526;10.028;2023-02-12T02:46:37;93248.09;;;-0.46;62.51
63493;BME280;49638;47.526;10.028;2023-02-12T02:49:45;93256.06;;;-0.47;63.30
63493;BME280;49638;47.526;10.028;2023-02-12T02:52:56;93253.72;;;-0.51;62.82
63493;BME280;49638;47.526;10.028;2023-02-12T02:56:01;93232.16;;;-0.61;62.95
63493;BME280;49638;47.526;10.028;2023-02-12T02:59:05;93222.97;;;-0.65;63.31
63493;BME280;49638;47.526;10.028;2023-02-12T03:02:19;93232.00;;;-0.59;61.87
63493;BME280;49638;47.526;10.028;2023-02-12T03:05:25;93246.22;;;-0.54;62.78
63493;BME280;49638;47.526;10.028;2023-02-12T03:08:33;93239.91;;;-0.51;62.88
63493;BME280;49638;47.526;10.028;2023-02-12T03:11:35;93235.41;;;-0.49;63.22
63493;BME280;49638;47.526;10.028;2023-02-12T03:14:38;93225.19;;;-0.70;63.11
63493;BME280;49638;47.526;10.028;2023-02-12T03:17:47;93237.88;;;-0.67;63.29
63493;BME280;49638;47.526;10.028;2023-02-12T03:20:52;93239.94;;;-0.70;63.53
63493;BME280;49638;47.526;10.028;2023-02-12T03:24:00;93243.22;;;-0.78;63.38
63493;BME280;49638;47.526;10.028;2023-02-12T03:27:12;93230.66;;;-0.92;63.11
63493;BME280;49638;47.526;10.028;2023-02-12T03:30:15;93241.03;;;-0.92;62.73
63493;BME280;49638;47.526;10.028;2023-02-12T03:39:51;93232.44;;;-1.03;64.16
63493;BME280;49638;47.526;10.028;2023-02-12T03:42:57;93234.47;;;-1.06;63.59
63493;BME280;49638;47.526;10.028;2023-02-12T03:49:19;93229.81;;;-1.03;63.68
63493;BME280;49638;47.526;10.028;2023-02-12T03:52:20;93235.84;;;-1.02;64.12
63493;BME280;49638;47.526;10.028;2023-02-12T03:55:21;93233.78;;;-0.99;63.83
63493;BME280;49638;47.526;10.028;2023-02-12T03:58:25;93251.13;;;-0.89;63.70
63493;BME280;49638;47.526;10.028;2023-02-12T04:01:27;93251.94;;;-0.89;63.65
63493;BME280;49638;47.526;10.028;2023-02-12T04:04:27;93257.31;;;-0.81;63.57
63493;BME280;49638;47.526;10.028;2023-02-12T04:07:28;93259.91;;;-0.81;63.52
63493;BME280;49638;47.526;10.028;2023-02-12T04:10:33;93267.41;;;-0.87;63.20
63493;BME280;49638;47.526;10.028;2023-02-12T04:13:49;93269.47;;;-0.81;61.28
63493;BME280;49638;47.526;10.028;2023-02-12T04:24:16;93251.13;;;-0.51;61.42
63493;BME280;49638;47.526;10.028;2023-02-12T04:27:29;93260.00;;;-0.43;61.70
63493;BME280;49638;47.526;10.028;2023-02-12T04:30:37;93249.63;;;-0.43;63.48
63493;BME280;49638;47.526;10.028;2023-02-12T04:33:45;93272.28;;;-0.45;62.89
63493;BME280;49638;47.526;10.028;2023-02-12T04:36:58;93260.44;;;-0.58;59.82
63493;BME280;49638;47.526;10.028;2023-02-12T04:40:04;93278.31;;;-0.45;61.32
63493;BME280;49638;47.526;10.028;2023-02-12T04:43:05;93280.09;;;-0.36;59.62
63493;BME280;49638;47.526;10.028;2023-02-12T04:46:07;93284.84;;;-0.31;60.64
63493;BME280;49638;47.526;10.028;2023-02-12T04:49:12;93281.97;;;-0.28;60.04
63493;BME280;49638;47.526;10.028;2023-02-12T04:52:13;93284.84;;;-0.21;61.79
63493;BME280;49638;47.526;10.028;2023-02-12T04:55:14;93284.13;;;-0.14;62.26
63493;BME280;49638;47.526;10.028;2023-02-12T04:58:15;93262.94;;;-0.09;62.39
63493;BME280;49638;47.526;10.028;2023-02-12T05:01:15;93260.31;;;0.01;62.20
63493;BME280;49638;47.526;10.028;2023-02-12T05:04:16;93258.09;;;0.06;61.66
63493;BME280;49638;47.526;10.028;2023-02-12T05:07:17;93259.97;;;0.13;61.62
63493;BME280;49638;47.526;10.028;2023-02-12T05:10:18;93256.56;;;0.13;61.22
63493;BME280;49638;47.526;10.028;2023-02-12T05:13:18;93267.69;;;0.05;60.45
63493;BME280;49638;47.526;10.028;2023-02-12T05:16:20;93272.63;;;-0.02;60.85
63493;BME280;49638;47.526;10.028;2023-02-12T05:19:20;93270.72;;;-0.09;60.03
63493;BME280;49638;47.526;10.028;2023-02-12T05:22:21;93275.25;;;-0.11;59.97
63493;BME280;49638;47.526;10.028;2023-02-12T05:25:21;93273.44;;;-0.11;61.15
63493;BME280;49638;47.526;10.028;2023-02-12T05:28:22;93279.47;;;-0.10;60.79
63493;BME280;49638;47.526;10.028;2023-02-12T05:31:22;93269.50;;;-0.15;59.79
63493;BME280;49638;47.526;10.028;2023-02-12T05:34:22;93271.00;;;-0.03;59.93
63493;BME280;49638;47.526;10.028;2023-02-12T05:37:22;93274.97;;;-0.08;60.72
63493;BME280;49638;47.526;10.028;2023-02-12T05:40:23;93274.31;;;-0.20;60.45
63493;BME280;49638;47.526;10.028;2023-02-12T05:43:23;93272.94;;;-0.24;60.72
63493;BME280;49638;47.526;10.028;2023-02-12T05:46:23;93277.88;;;-0.31;60.61
63493;BME280;49638;47.526;10.028;2023-02-12T05:49:23;93258.75;;;-0.39;60.29
63493;BME280;49638;47.526;10.028;2023-02-12T05:52:24;93271.84;;;-0.31;60.98
63493;BME280;49638;47.526;10.028;2023-02-12T05:55:24;93267.63;;;-0.32;60.73
63493;BME280;49638;47.526;10.028;2023-02-12T05:58:24;93261.78;;;-0.44;60.53
63493;BME280;49638;47.526;10.028;2023-02-12T06:01:33;93266.03;;;-0.53;61.41
63493;BME280;49638;47.526;10.028;2023-02-12T06:04:34;93266.72;;;-0.60;62.11
63493;BME280;49638;47.526;10.028;2023-02-12T06:07:34;93270.56;;;-0.64;62.00
63493;BME280;49638;47.526;10.028;2023-02-12T06:10:35;93262.75;;;-0.74;61.03
63493;BME280;49638;47.526;10.028;2023-02-12T06:13:36;93252.50;;;-0.85;61.18
63493;BME280;49638;47.526;10.028;2023-02-12T06:16:36;93253.06;;;-0.91;61.17
63493;BME280;49638;47.526;10.028;2023-02-12T06:19:37;93256.06;;;-0.86;61.95
63493;BME280;49638;47.526;10.028;2023-02-12T06:22:37;93267.25;;;-0.96;62.12
63493;BME280;49638;47.526;10.028;2023-02-12T06:25:38;93265.59;;;-1.06;62.55
63493;BME280;49638;47.526;10.028;2023-02-12T06:28:38;93266.16;;;-1.22;62.85
63493;BME280;49638;47.526;10.028;2023-02-12T06:31:38;93262.84;;;-1.34;62.69
63493;BME280;49638;47.526;10.028;2023-02-12T06:34:39;93256.69;;;-1.42;62.46
63493;BME280;49638;47.526;10.028;2023-02-12T06:37:39;93269.25;;;-1.38;63.15
63493;BME280;49638;47.526;10.028;2023-02-12T06:40:40;93265.84;;;-1.38;62.94
63493;BME280;49638;47.526;10.028;2023-02-12T06:43:40;93254.63;;;-1.49;62.94
63493;BME280;49638;47.526;10.028;2023-02-12T06:46:41;93262.69;;;-1.52;63.08
63493;BME280;49638;47.526;10.028;2023-02-12T06:49:41;93267.16;;;-1.54;63.06
63493;BME280;49638;47.526;10.028;2023-02-12T06:52:41;93277.00;;;-1.48;63.13
63493;BME280;49638;47.526;10.028;2023-02-12T06:55:42;93269.09;;;-1.56;62.97
63493;BME280;49638;47.526;10.028;2023-02-12T06:58:44;93262.50;;;-1.70;62.35
63493;BME280;49638;47.526;10.028;2023-02-12T07:01:45;93278.59;;;-1.66;62.56
63493;BME280;49638;47.526;10.028;2023-02-12T07:04:45;93259.34;;;-1.73;63.40
63493;BME280;49638;47.526;10.028;2023-02-12T07:07:45;93274.66;;;-1.60;63.35
63493;BME280;49638;47.526;10.028;2023-02-12T07:10:47;93275.47;;;-1.60;62.86
63493;BME280;49638;47.526;10.028;2023-02-12T07:13:49;93266.31;;;-1.64;62.93
63493;BME280;49638;47.526;10.028;2023-02-12T07:16:49;93271.41;;;-1.53;62.57
63493;BME280;49638;47.526;10.028;2023-02-12T07:19:49;93282.34;;;-1.49;62.61
63493;BME280;49638;47.526;10.028;2023-02-12T07:22:49;93266.78;;;-1.49;63.20
63493;BME280;49638;47.526;10.028;2023-02-12T07:26:00;93270.47;;;-1.42;63.02
63493;BME280;49638;47.526;10.028;2023-02-12T07:29:01;93266.22;;;-1.53;63.64
63493;BME280;49638;47.526;10.028;2023-02-12T07:32:01;93270.00;;;-1.57;64.03
63493;BME280;49638;47.526;10.028;2023-02-12T07:35:01;93261.56;;;-1.59;64.28
63493;BME280;49638;47.526;10.028;2023-02-12T07:38:02;93270.19;;;-1.49;64.24
63493;BME280;49638;47.526;10.028;2023-02-12T07:41:25;93272.41;;;-1.34;62.74
63493;BME280;49638;47.526;10.028;2023-02-12T07:44:26;93272.81;;;-1.20;63.39
63493;BME280;49638;47.526;10.028;2023-02-12T07:47:26;93273.38;;;-1.16;63.89
63493;BME280;49638;47.526;10.028;2023-02-12T07:50:26;93274.06;;;-1.14;63.81
63493;BME280;49638;47.526;10.028;2023-02-12T07:53:27;93268.34;;;-1.08;63.61
63493;BME280;49638;47.526;10.028;2023-02-12T07:56:29;93282.28;;;-0.89;63.35
63493;BME280;49638;47.526;10.028;2023-02-12T07:59:31;93277.53;;;-0.84;62.63
63493;BME280;49638;47.526;10.028;2023-02-12T08:02:31;93275.59;;;-0.82;62.41
63493;BME280;49638;47.526;10.028;2023-02-12T08:05:32;93277.38;;;-0.73;61.70
63493;BME280;49638;47.526;10.028;2023-02-12T08:08:32;93274.91;;;-0.65;62.09
63493;BME280;49638;47.526;10.028;2023-02-12T08:11:32;93270.56;;;-0.64;62.46
63493;BME280;49638;47.526;10.028;2023-02-12T08:14:33;93260.81;;;-0.53;61.99
63493;BME280;49638;47.526;10.028;2023-02-12T08:17:33;93251.13;;;-0.51;62.50
63493;BME280;49638;47.526;10.028;2023-02-12T08:20:33;93244.97;;;-0.40;62.02
63493;BME280;49638;47.526;10.028;2023-02-12T08:23:34;93229.78;;;-0.44;62.47
63493;BME280;49638;47.526;10.028;2023-02-12T08:26:37;93256.25;;;-0.21;62.07
63493;BME280;49638;47.526;10.028;2023-02-12T08:29:37;93259.09;;;-0.15;62.08
63493;BME280;49638;47.526;10.028;2023-02-12T08:32:38;93253.47;;;-0.10;62.35
63493;BME280;49638;47.526;10.028;2023-02-12T08:35:38;93251.03;;;-0.12;62.40
63493;BME280;49638;47.526;10.028;2023-02-12T08:38:39;93269.59;;;0.03;62.12
63493;BME280;49638;47.526;10.028;2023-02-12T08:41:39;93271.22;;;0.14;61.85
63493;BME280;49638;47.526;10.028;2023-02-12T08:44:41;93272.81;;;0.25;61.54
63493;BME280;49638;47.526;10.028;2023-02-12T08:47:42;93263.47;;;0.32;61.35
63493;BME280;49638;47.526;10.028;2023-02-12T08:50:42;93257.56;;;0.39;61.15
63493;BME280;49638;47.526;10.028;2023-02-12T08:53:44;93259.41;;;0.47;61.07
63493;BME280;49638;47.526;10.028;2023-02-12T08:56:45;93259.25;;;0.58;61.02
63493;BME280;49638;47.526;10.028;2023-02-12T08:59:47;93256.38;;;0.61;60.04
63493;BME280;49638;47.526;10.028;2023-02-12T09:02:48;93259.56;;;0.73;61.39
63493;BME280;49638;47.526;10.028;2023-02-12T09:05:48;93250.06;;;0.82;61.45
63493;BME280;49638;47.526;10.028;2023-02-12T09:08:50;93253.56;;;0.90;61.54
63493;BME280;49638;47.526;10.028;2023-02-12T09:11:51;93258.56;;;1.02;61.47
63493;BME280;49638;47.526;10.028;2023-02-12T09:14:51;93241.59;;;0.98;61.18
63493;BME280;49638;47.526;10.028;2023-02-12T09:17:51;93255.75;;;1.13;60.57
63493;BME280;49638;47.526;10.028;2023-02-12T09:20:51;93245.69;;;1.18;60.63
63493;BME280;49638;47.526;10.028;2023-02-12T09:23:52;93237.59;;;1.21;60.51
63493;BME280;49638;47.526;10.028;2023-02-12T09:26:52;93226.19;;;1.22;60.75
63493;BME280;49638;47.526;10.028;2023-02-12T09:29:52;93239.66;;;1.35;60.50
63493;BME280;49638;47.526;10.028;2023-02-12T09:32:53;93243.28;;;1.42;60.69
63493;BME280;49638;47.526;10.028;2023-02-12T09:35:54;93248.88;;;1.48;60.66
63493;BME280;49638;47.526;10.028;2023-02-12T09:38:54;93232.50;;;1.55;60.33
63493;BME280;49638;47.526;10.028;2023-02-12T09:52:28;93243.34;;;1.95;60.08
63493;BME280;49638;47.526;10.028;2023-02-12T09:55:30;93232.00;;;2.04;60.14
63493;BME280;49638;47.526;10.028;2023-02-12T09:58:48;93239.19;;;2.10;59.82
63493;BME280;49638;47.526;10.028;2023-02-12T10:01:50;93222.28;;;2.14;59.80
63493;BME280;49638;47.526;10.028;2023-02-12T10:04:51;93224.56;;;2.17;59.72
63493;BME280;49638;47.526;10.028;2023-02-12T10:08:07;93234.13;;;2.34;57.54
63493;BME280;49638;47.526;10.028;2023-02-12T10:11:19;93237.56;;;2.43;59.41
63493;BME280;49638;47.526;10.028;2023-02-12T10:14:47;93233.22;;;2.52;56.85
63493;BME280;49638;47.526;10.028;2023-02-12T10:18:07;93236.84;;;2.59;57.48
63493;BME280;49638;47.526;10.028;2023-02-12T10:24:45;93228.38;;;2.65;56.51
63493;BME280;49638;47.526;10.028;2023-02-12T10:27:51;93231.97;;;2.72;59.53
63493;BME280;49638;47.526;10.028;2023-02-12T10:30:55;93222.66;;;2.70;59.22
63493;BME280;49638;47.526;10.028;2023-02-12T10:33:56;93228.09;;;2.84;59.05
63493;BME280;49638;47.526;10.028;2023-02-12T10:40:26;93225.50;;;2.93;59.61
63493;BME280;49638;47.526;10.028;2023-02-12T10:43:29;93219.31;;;2.94;59.42
63493;BME280;49638;47.526;10.028;2023-02-12T10:46:30;93211.28;;;2.95;59.57
63493;BME280;49638;47.526;10.028;2023-02-12T10:49:31;93204.94;;;2.98;59.64
63493;BME280;49638;47.526;10.028;2023-02-12T10:52:38;93206.44;;;3.00;58.38
63493;BME280;49638;47.526;10.028;2023-02-12T10:55:42;93209.84;;;3.09;59.49
63493;BME280;49638;47.526;10.028;2023-02-12T11:01:49;93194.19;;;3.17;59.48
63493;BME280;49638;47.526;10.028;2023-02-12T11:04:51;93198.28;;;3.28;59.72
63493;BME280;49638;47.526;10.028;2023-02-12T11:07:52;93184.41;;;3.27;59.47
63493;BME280;49638;47.526;10.028;2023-02-12T11:10:52;93180.00;;;3.36;59.35
63493;BME280;49638;47.526;10.028;2023-02-12T11:13:56;93184.72;;;3.49;58.98
63493;BME280;49638;47.526;10.028;2023-02-12T11:16:59;93175.94;;;3.50;58.96
63493;BME280;49638;47.526;10.028;2023-02-12T11:20:48;93184.91;;;3.64;55.48
63493;BME280;49638;47.526;10.028;2023-02-12T11:23:47;93180.13;;;3.75;59.06
63493;BME280;49638;47.526;10.028;2023-02-12T11:26:47;93170.47;;;3.76;59.22
63493;BME280;49638;47.526;10.028;2023-02-12T11:33:30;93173.88;;;3.93;57.33
63493;BME280;49638;47.526;10.028;2023-02-12T11:36:49;93164.28;;;3.85;59.63
63493;BME280;49638;47.526;10.028;2023-02-12T11:39:50;93166.56;;;3.88;59.73
63493;BME280;49638;47.526;10.028;2023-02-12T11:42:54;93171.28;;;3.93;59.99
63493;BME280;49638;47.526;10.028;2023-02-12T11:45:55;93160.19;;;3.91;59.95
63493;BME280;49638;47.526;10.028;2023-02-12T11:48:56;93168.00;;;3.99;59.99
63493;BME280;49638;47.526;10.028;2023-02-12T11:51:59;93172.09;;;4.01;60.25
63493;BME280;49638;47.526;10.028;2023-02-12T11:55:13;93166.84;;;3.93;60.13
63493;BME280;49638;47.526;10.028;2023-02-12T11:58:23;93162.78;;;3.91;60.62
63493;BME280;49638;47.526;10.028;2023-02-12T12:01:29;93152.81;;;3.86;60.39
63493;BME280;49638;47.526;10.028;2023-02-12T12:04:33;93149.56;;;3.84;60.94
63493;BME280;49638;47.526;10.028;2023-02-12T12:07:38;93155.44;;;3.94;60.82
63493;BME280;49638;47.526;10.028;2023-02-12T12:10:56;93161.63;;;4.01;59.68
63493;BME280;49638;47.526;10.028;2023-02-12T12:14:16;93157.50;;;4.07;59.74
63493;BME280;49638;47.526;10.028;2023-02-12T12:17:24;93150.78;;;4.13;60.11
63493;BME280;49638;47.526;10.028;2023-02-12T12:20:56;93149.44;;;4.25;59.01
63493;BME280;49638;47.526;10.028;2023-02-12T12:24:03;93134.03;;;4.30;59.87
63493;BME280;49638;47.526;10.028;2023-02-12T12:27:18;93143.31;;;4.41;58.90
63493;BME280;49638;47.526;10.028;2023-02-12T12:30:52;93139.34;;;4.53;58.55
63493;BME280;49638;47.526;10.028;2023-02-12T12:34:11;93139.47;;;4.60;58.39
63493;BME280;49638;47.526;10.028;2023-02-12T12:38:32;93137.97;;;4.65;58.58
63493;BME280;49638;47.526;10.028;2023-02-12T12:47:53;93133.06;;;4.85;60.04
63493;BME280;49638;47.526;10.028;2023-02-12T12:54:27;93119.25;;;5.00;57.05
63493;BME280;49638;47.526;10.028;2023-02-12T12:58:05;93116.09;;;5.04;55.46
63493;BME280;49638;47.526;10.028;2023-02-12T13:15:35;93103.72;;;5.36;56.04
63493;BME280;49638;47.526;10.028;2023-02-12T13:18:51;93093.22;;;5.36;56.23
63493;BME280;49638;47.526;10.028;2023-02-12T13:25:16;93102.34;;;5.40;56.19
63493;BME280;49638;47.526;10.028;2023-02-12T13:28:32;93097.06;;;5.48;55.00
63493;BME280;49638;47.526;10.028;2023-02-12T13:31:39;93095.16;;;5.57;57.71
63493;BME280;49638;47.526;10.028;2023-02-12T13:34:42;93098.63;;;5.57;58.25
63493;BME280;49638;47.526;10.028;2023-02-12T13:37:48;93095.00;;;5.58;56.70
63493;BME280;49638;47.526;10.028;2023-02-12T13:40:54;93099.88;;;5.61;58.13
63493;BME280;49638;47.526;10.028;2023-02-12T13:44:25;93100.69;;;5.62;56.86
63493;BME280;49638;47.526;10.028;2023-02-12T13:48:08;93095.59;;;5.60;57.35
63493;BME280;49638;47.526;10.028;2023-02-12T13:51:09;93097.53;;;5.66;58.99
63493;BME280;49638;47.526;10.028;2023-02-12T13:54:35;93100.78;;;5.68;59.10
63493;BME280;49638;47.526;10.028;2023-02-12T13:57:36;93107.66;;;5.69;59.56
63493;BME280;49638;47.526;10.028;2023-02-12T14:00:56;93108.66;;;5.68;58.71
63493;BME280;49638;47.526;10.028;2023-02-12T14:04:13;93099.44;;;5.73;59.43
63493;BME280;49638;47.526;10.028;2023-02-12T14:07:15;93109.28;;;5.70;60.17
63493;BME280;49638;47.526;10.028;2023-02-12T14:10:40;93106.03;;;5.68;59.95
63493;BME280;49638;47.526;10.028;2023-02-12T14:13:54;93106.84;;;5.69;60.29
63493;BME280;49638;47.526;10.028;2023-02-12T14:16:55;93110.47;;;5.68;60.86
63493;BME280;49638;47.526;10.028;2023-02-12T14:23:26;93102.97;;;5.65;61.18
63493;BME280;49638;47.526;10.028;2023-02-12T14:26:35;93098.34;;;5.67;61.20
63493;BME280;49638;47.526;10.028;2023-02-12T14:29:37;93098.16;;;5.68;61.36
63493;BME280;49638;47.526;10.028;2023-02-12T14:35:45;93093.00;;;5.60;61.38
63493;BME280;49638;47.526;10.028;2023-02-12T14:41:54;93107.66;;;5.69;61.53
63493;BME280;49638;47.526;10.028;2023-02-12T14:44:56;93100.78;;;5.68;61.60
63493;BME280;49638;47.526;10.028;2023-02-12T14:47:57;93099.19;;;5.67;61.68
63493;BME280;49638;47.526;10.028;2023-02-12T14:51:00;93097.38;;;5.68;61.42
63493;BME280;49638;47.526;10.028;2023-02-12T14:54:03;93095.25;;;5.63;61.57
63493;BME280;49638;47.526;10.028;2023-02-12T14:57:17;93099.19;;;5.67;60.85
63493;BME280;49638;47.526;10.028;2023-02-12T15:00:39;93101.16;;;5.65;61.04
63493;BME280;49638;47.526;10.028;2023-02-12T15:03:50;93094.19;;;5.58;61.13
63493;BME280;49638;47.526;10.028;2023-02-12T15:07:00;93109.38;;;5.62;61.55
63493;BME280;49638;47.526;10.028;2023-02-12T15:10:07;93106.09;;;5.60;61.80
63493;BME280;49638;47.526;10.028;2023-02-12T15:13:19;93109.47;;;5.54;61.74
63493;BME280;49638;47.526;10.028;2023-02-12T15:16:32;93111.72;;;5.57;61.36
63493;BME280;49638;47.526;10.028;2023-02-12T15:19:40;93112.53;;;5.58;61.88
63493;BME280;49638;47.526;10.028;2023-02-12T15:22:43;93099.38;;;5.43;62.20
63493;BME280;49638;47.526;10.028;2023-02-12T15:25:43;93106.97;;;5.38;62.32
63493;BME280;49638;47.526;10.028;2023-02-12T15:28:49;93117.28;;;5.39;62.23
63493;BME280;49638;47.526;10.028;2023-02-12T15:32:13;93124.78;;;5.42;62.55
63493;BME280;49638;47.526;10.028;2023-02-12T15:35:21;93126.94;;;5.39;62.58
63493;BME280;49638;47.526;10.028;2023-02-12T15:38:34;93112.38;;;5.36;62.96
63493;BME280;49638;47.526;10.028;2023-02-12T15:41:37;93120.44;;;5.35;62.95
63493;BME280;49638;47.526;10.028;2023-02-12T15:44:38;93118.63;;;5.35;63.09
63493;BME280;49638;47.526;10.028;2023-02-12T15:47:39;93113.94;;;5.31;63.32
63493;BME280;49638;47.526;10.028;2023-02-12T15:54:22;93111.81;;;5.26;63.42
63493;BME280;49638;47.526;10.028;2023-02-12T15:57:23;93115.16;;;5.20;63.75
63493;BME280;49638;47.526;10.028;2023-02-12T16:00:31;93110.78;;;5.12;63.96
63493;BME280;49638;47.526;10.028;2023-02-12T16:03:38;93112.09;;;5.16;64.20
63493;BME280;49638;47.526;10.028;2023-02-12T16:06:39;93106.53;;;5.11;64.42
63493;BME280;49638;47.526;10.028;2023-02-12T16:09:41;93111.78;;;5.11;64.56
63493;BME280;49638;47.526;10.028;2023-02-12T16:12:42;93107.22;;;5.05;64.81
63493;BME280;49638;47.526;10.028;2023-02-12T16:15:43;93109.03;;;5.05;65.11
63493;BME280;49638;47.526;10.028;2023-02-12T16:18:43;93097.81;;;4.96;65.24
63493;BME280;49638;47.526;10.028;2023-02-12T16:21:45;93102.69;;;4.99;65.20
63493;BME280;49638;47.526;10.028;2023-02-12T16:24:51;93104.34;;;5.00;66.01
63493;BME280;49638;47.526;10.028;2023-02-12T16:28:00;93104.34;;;5.00;65.85
63493;BME280;49638;47.526;10.028;2023-02-12T16:31:09;93102.06;;;4.97;67.22
63493;BME280;49638;47.526;10.028;2023-02-12T16:34:26;93107.66;;;4.94;67.43
63493;BME280;49638;47.526;10.028;2023-02-12T16:40:36;93098.41;;;4.83;66.49
63493;BME280;49638;47.526;10.028;2023-02-12T16:43:36;93122.25;;;4.88;66.45
63493;BME280;49638;47.526;10.028;2023-02-12T16:46:47;93103.19;;;4.80;67.27
63493;BME280;49638;47.526;10.028;2023-02-12T16:49:59;93111.38;;;4.77;67.61
63493;BME280;49638;47.526;10.028;2023-02-12T16:53:02;93112.19;;;4.77;66.81
63493;BME280;49638;47.526;10.028;2023-02-12T16:56:03;93101.78;;;4.69;66.78
63493;BME280;49638;47.526;10.028;2023-02-12T16:59:05;93104.22;;;4.70;66.73
63493;BME280;49638;47.526;10.028;2023-02-12T17:02:11;93119.91;;;4.70;67.23
63493;BME280;49638;47.526;10.028;2023-02-12T17:05:13;93118.00;;;4.64;67.03
63493;BME280;49638;47.526;10.028;2023-02-12T17:08:19;93116.16;;;4.42;67.08
63493;BME280;49638;47.526;10.028;2023-02-12T17:11:20;93112.47;;;4.20;67.33
63493;BME280;49638;47.526;10.028;2023-02-12T17:14:20;93108.63;;;3.99;67.61
63493;BME280;49638;47.526;10.028;2023-02-12T17:17:20;93116.72;;;3.82;67.94
63493;BME280;49638;47.526;10.028;2023-02-12T17:20:21;93107.75;;;3.60;68.23
63493;BME280;49638;47.526;10.028;2023-02-12T17:23:21;93119.72;;;3.54;68.53
63493;BME280;49638;47.526;10.028;2023-02-12T17:26:23;93115.81;;;3.42;68.76
63493;BME280;49638;47.526;10.028;2023-02-12T17:29:24;93122.19;;;3.31;69.12
63493;BME280;49638;47.526;10.028;2023-02-12T17:32:24;93118.28;;;3.19;69.34
63493;BME280;49638;47.526;10.028;2023-02-12T17:35:25;93121.69;;;3.19;69.82
63493;BME280;49638;47.526;10.028;2023-02-12T17:38:25;93114.69;;;3.12;69.82
63493;BME280;49638;47.526;10.028;2023-02-12T17:41:25;93124.97;;;3.13;70.13
63493;BME280;49638;47.526;10.028;2023-02-12T17:44:26;93122.69;;;3.10;70.08
63493;BME280;49638;47.526;10.028;2023-02-12T17:47:26;93123.81;;;3.07;70.69
63493;BME280;49638;47.526;10.028;2023-02-12T17:50:26;93128.88;;;3.09;70.47